createdAt,value
2023-04-24T00:01:08.651Z,0.95
2023-04-24T00:03:34.085Z,2.67
2023-04-24T00:06:00.077Z,1.65
2023-04-24T00:08:24.896Z,2.20
2023-04-24T00:10:48.492Z,2.50
2023-04-24T00:13:11.854Z,4.65
2023-04-24T00:15:35.233Z,2.50
2023-04-24T00:17:58.566Z,1.30
2023-04-24T00:20:22.211Z,1.83
2023-04-24T00:22:46.787Z,1.25
2023-04-24T00:25:10.941Z,3.42
2023-04-24T00:27:34.386Z,3.72
2023-04-24T00:29:57.710Z,5.75
2023-04-24T00:32:21.487Z,4.13
2023-04-24T00:34:45.615Z,5.43
2023-04-24T00:37:09.306Z,5.10
2023-04-24T00:39:36.355Z,7.40
2023-04-24T00:42:00.116Z,4.10
2023-04-24T00:44:23.524Z,11.38
2023-04-24T00:46:48.062Z,5.03
2023-04-24T00:49:11.605Z,6.28
2023-04-24T00:51:37.696Z,6.25
2023-04-24T00:54:01.320Z,6.05
2023-04-24T00:56:26.860Z,5.60
2023-04-24T00:58:50.394Z,6.45
2023-04-24T01:01:13.914Z,6.93
2023-04-24T01:03:39.084Z,9.65
2023-04-24T01:06:03.494Z,9.52
2023-04-24T01:08:28.693Z,8.00
2023-04-24T01:10:54.696Z,8.30
2023-04-24T01:13:20.082Z,7.82
2023-04-24T01:15:43.346Z,6.43
2023-04-24T01:18:07.079Z,9.20
2023-04-24T01:20:31.094Z,9.25
2023-04-24T01:22:57.530Z,10.07
2023-04-24T01:25:20.875Z,8.93
2023-04-24T01:27:44.163Z,7.85
2023-04-24T01:30:10.532Z,6.95
2023-04-24T01:32:33.894Z,7.53
2023-04-24T01:34:57.781Z,7.47
2023-04-24T01:37:21.233Z,6.70
2023-04-24T01:39:46.106Z,8.18
2023-04-24T01:42:09.723Z,6.93
2023-04-24T01:44:33.364Z,11.00
2023-04-24T01:46:57.842Z,9.27
2023-04-24T01:49:21.359Z,9.15
2023-04-24T01:51:44.731Z,13.00
2023-04-24T01:54:08.035Z,11.60
2023-04-24T01:56:36.932Z,10.10
2023-04-24T01:59:00.594Z,9.07
2023-04-24T02:01:25.858Z,10.55
2023-04-24T02:03:49.366Z,10.73
2023-04-24T02:06:12.705Z,17.92
2023-04-24T02:08:35.978Z,15.43
2023-04-24T02:10:59.261Z,14.75
2023-04-24T02:13:23.848Z,13.65
2023-04-24T02:15:47.146Z,15.20
2023-04-24T02:18:12.397Z,20.17
2023-04-24T02:20:36.444Z,14.52
2023-04-24T02:22:59.741Z,16.45
2023-04-24T02:25:23.830Z,16.92
2023-04-24T02:27:47.032Z,16.60
2023-04-24T02:30:13.613Z,18.00
2023-04-24T02:32:36.925Z,17.38
2023-04-24T02:35:00.337Z,13.68
2023-04-24T02:37:23.658Z,18.80
2023-04-24T02:39:46.931Z,19.27
2023-04-24T02:42:10.851Z,20.65
2023-04-24T02:44:34.117Z,17.90
2023-04-24T02:46:58.776Z,19.63
2023-04-24T02:49:22.081Z,20.75
2023-04-24T02:51:45.401Z,18.35
2023-04-24T02:54:09.098Z,21.65
2023-04-24T02:56:32.295Z,14.45
2023-04-24T02:58:56.877Z,20.48
2023-04-24T03:01:20.268Z,18.42
2023-04-24T03:03:45.142Z,21.10
2023-04-24T03:06:08.972Z,21.38
2023-04-24T03:08:32.393Z,21.00
2023-04-24T03:10:55.701Z,20.02
2023-04-24T03:13:19.136Z,17.65
2023-04-24T03:15:42.471Z,21.98
2023-04-24T03:18:05.845Z,22.60
2023-04-24T03:20:31.329Z,21.75
2023-04-24T03:22:55.087Z,18.17
2023-04-24T03:25:18.740Z,18.50
2023-04-24T03:27:42.510Z,18.55
2023-04-24T03:30:28.755Z,20.10
2023-04-24T03:32:56.649Z,18.10
2023-04-24T03:35:25.082Z,18.83
2023-04-24T03:37:51.067Z,20.90
2023-04-24T03:40:37.544Z,16.33
2023-04-24T03:43:07.873Z,17.20
2023-04-24T03:45:31.718Z,16.25
2023-04-24T03:47:55.035Z,19.15
2023-04-24T03:50:18.872Z,21.45
2023-04-24T03:52:42.170Z,17.17
2023-04-24T03:55:09.596Z,21.50
2023-04-24T03:57:38.851Z,15.35
2023-04-24T04:00:11.133Z,20.15
2023-04-24T04:02:38.098Z,16.35
2023-04-24T04:05:01.669Z,16.58
2023-04-24T04:07:25.147Z,18.85
2023-04-24T04:09:48.582Z,16.00
2023-04-24T04:12:14.748Z,17.33
2023-04-24T04:14:38.010Z,14.68
2023-04-24T04:17:01.314Z,16.95
2023-04-24T04:19:25.187Z,19.05
2023-04-24T04:21:53.087Z,14.48
2023-04-24T04:24:39.089Z,15.48
2023-04-24T04:27:02.766Z,18.98
2023-04-24T04:29:32.367Z,17.92
2023-04-24T04:31:56.225Z,16.20
2023-04-24T04:34:20.524Z,16.10
2023-04-24T04:36:45.238Z,15.02
2023-04-24T04:39:22.281Z,14.52
2023-04-24T04:42:01.517Z,14.10
2023-04-24T04:44:32.726Z,13.40
2023-04-24T04:46:57.508Z,13.43
2023-04-24T04:49:25.719Z,12.70
2023-04-24T04:51:49.505Z,15.77
2023-04-24T04:54:12.884Z,14.43
2023-04-24T04:56:36.206Z,13.80
2023-04-24T04:59:00.358Z,14.07
2023-04-24T05:01:28.439Z,13.52
2023-04-24T05:03:52.761Z,14.98
2023-04-24T05:06:16.491Z,17.02
2023-04-24T05:08:40.961Z,16.90
2023-04-24T05:11:08.694Z,17.80
2023-04-24T05:13:40.359Z,15.73
2023-04-24T05:16:14.816Z,17.02
2023-04-24T05:18:39.655Z,16.13
2023-04-24T05:21:05.020Z,17.00
2023-04-24T05:23:28.399Z,15.82
2023-04-24T05:25:53.335Z,19.15
2023-04-24T05:28:17.611Z,13.20
2023-04-24T05:30:45.700Z,14.55
2023-04-24T05:33:15.046Z,15.95
2023-04-24T05:35:39.822Z,14.90
2023-04-24T05:38:03.362Z,12.38
2023-04-24T05:40:26.772Z,12.48
2023-04-24T05:42:50.387Z,14.27
2023-04-24T05:45:17.584Z,15.48
2023-04-24T05:47:40.950Z,14.13
2023-04-24T05:50:04.474Z,12.05
2023-04-24T05:52:29.126Z,12.65
2023-04-24T05:54:53.240Z,15.98
2023-04-24T05:57:21.329Z,13.65
2023-04-24T05:59:49.593Z,11.27
2023-04-24T06:02:15.988Z,12.45
2023-04-24T06:04:39.516Z,13.10
2023-04-24T06:07:03.065Z,12.73
2023-04-24T06:09:28.180Z,11.68
2023-04-24T06:11:53.729Z,13.05
2023-04-24T06:14:20.048Z,13.55
2023-04-24T06:17:01.859Z,12.00
2023-04-24T06:19:32.085Z,10.45
2023-04-24T06:21:55.571Z,14.00
2023-04-24T06:24:18.800Z,11.13
2023-04-24T06:26:43.910Z,12.73
2023-04-24T06:29:08.612Z,11.20
2023-04-24T06:31:37.804Z,11.13
2023-04-24T06:34:02.001Z,9.60
2023-04-24T06:36:25.325Z,10.50
2023-04-24T06:38:48.663Z,10.10
2023-04-24T06:41:12.407Z,9.18
2023-04-24T06:43:37.078Z,10.10
2023-04-24T06:46:01.340Z,10.07
2023-04-24T06:48:24.839Z,11.13
2023-04-24T06:50:48.556Z,12.43
2023-04-24T06:53:13.678Z,10.10
2023-04-24T06:55:39.035Z,8.88
2023-04-24T06:58:02.498Z,8.23
2023-04-24T07:00:27.216Z,7.95
2023-04-24T07:02:50.927Z,8.70
2023-04-24T07:05:14.261Z,5.53
2023-04-24T07:07:38.740Z,7.13
2023-04-24T07:10:02.521Z,3.92
2023-04-24T07:12:26.138Z,4.70
2023-04-24T07:14:49.425Z,2.80
2023-04-24T07:17:14.725Z,2.60
2023-04-24T07:19:37.931Z,2.40
2023-04-24T07:22:01.449Z,1.73
2023-04-24T07:24:26.715Z,1.30
2023-04-24T07:26:51.157Z,2.20
2023-04-24T07:29:15.095Z,1.38
2023-04-24T07:31:38.967Z,3.95
2023-04-24T07:34:03.614Z,1.50
2023-04-24T07:36:27.078Z,1.85
2023-04-24T07:38:51.142Z,1.58
2023-04-24T07:41:14.473Z,2.28
2023-04-24T07:43:37.878Z,3.63
2023-04-24T07:46:01.756Z,1.75
2023-04-24T07:48:27.049Z,1.60
2023-04-24T07:50:51.675Z,3.53
2023-04-24T07:53:14.976Z,3.78
2023-04-24T07:55:38.493Z,2.85
2023-04-24T07:58:01.761Z,2.90
2023-04-24T08:00:25.135Z,2.58
2023-04-24T08:02:48.627Z,1.90
2023-04-24T08:05:12.272Z,3.65
2023-04-24T08:07:37.345Z,3.28
2023-04-24T08:10:01.333Z,2.65
2023-04-24T08:12:24.572Z,2.50
2023-04-24T08:14:47.988Z,1.92
2023-04-24T08:17:11.254Z,3.75
2023-04-24T08:19:34.498Z,1.70
2023-04-24T08:21:57.785Z,3.40
2023-04-24T08:24:22.396Z,1.60
2023-04-24T08:26:46.034Z,1.77
2023-04-24T08:29:09.303Z,1.50
2023-04-24T08:31:32.624Z,2.90
2023-04-24T08:33:55.956Z,2.97
2023-04-24T08:36:19.293Z,4.68
2023-04-24T08:38:43.328Z,3.17
2023-04-24T08:41:09.965Z,2.78
2023-04-24T08:43:35.327Z,2.97
2023-04-24T08:46:00.255Z,2.85
2023-04-24T08:48:30.920Z,3.58
2023-04-24T08:50:56.348Z,4.68
2023-04-24T08:53:20.978Z,6.25
2023-04-24T08:55:49.315Z,7.95
2023-04-24T08:58:14.766Z,9.23
2023-04-24T09:00:38.690Z,7.50
2023-04-24T09:03:04.538Z,8.75
2023-04-24T09:05:29.265Z,8.77
2023-04-24T09:07:56.554Z,12.38
2023-04-24T09:10:20.006Z,9.13
2023-04-24T09:12:44.133Z,11.48
2023-04-24T09:15:10.624Z,10.32
2023-04-24T09:17:35.284Z,9.82
2023-04-24T09:19:58.578Z,11.77
2023-04-24T09:22:23.364Z,10.82
2023-04-24T09:24:48.167Z,7.80
2023-04-24T09:27:15.713Z,8.75
2023-04-24T09:29:38.998Z,11.02
2023-04-24T09:32:22.747Z,10.57
2023-04-24T09:34:49.983Z,12.50
2023-04-24T09:37:13.301Z,15.98
2023-04-24T09:39:36.581Z,13.40
2023-04-24T09:42:00.721Z,15.13
2023-04-24T09:44:27.421Z,16.05
2023-04-24T09:46:53.737Z,16.05
2023-04-24T09:49:23.996Z,17.27
2023-04-24T09:51:47.300Z,14.88
2023-04-24T09:54:18.183Z,11.43
2023-04-24T09:56:46.140Z,13.90
2023-04-24T09:59:09.744Z,18.45
2023-04-24T10:01:33.576Z,15.50
2023-04-24T10:03:56.832Z,11.98
2023-04-24T10:06:21.646Z,12.35
2023-04-24T10:08:47.253Z,14.05
2023-04-24T10:11:12.367Z,10.85
2023-04-24T10:13:37.481Z,19.10
2023-04-24T10:16:02.698Z,10.88
2023-04-24T10:18:27.492Z,14.40
2023-04-24T10:20:51.192Z,10.60
2023-04-24T10:23:16.117Z,10.63
2023-04-24T10:25:39.508Z,17.70
2023-04-24T10:28:04.600Z,19.30
2023-04-24T10:30:30.299Z,14.93
2023-04-24T10:32:53.647Z,16.35
2023-04-24T10:35:18.128Z,13.50
2023-04-24T10:37:45.606Z,17.00
2023-04-24T10:40:12.892Z,13.63
2023-04-24T10:42:36.649Z,15.18
2023-04-24T10:44:59.944Z,15.00
2023-04-24T10:47:23.183Z,14.95
2023-04-24T10:49:46.565Z,14.27
2023-04-24T10:52:12.990Z,15.48
2023-04-24T10:54:45.306Z,17.63
2023-04-24T10:57:32.555Z,21.48
2023-04-24T11:00:16.260Z,21.70
2023-04-24T11:02:49.396Z,13.40
2023-04-24T11:05:13.011Z,13.57
2023-04-24T11:08:14.931Z,16.92
2023-04-24T11:10:42.088Z,18.17
2023-04-24T11:13:06.926Z,13.80
2023-04-24T11:15:30.567Z,18.23
2023-04-24T11:17:58.391Z,14.60
2023-04-24T11:23:10.891Z,8.73
2023-04-24T11:25:34.433Z,11.88
2023-04-24T11:28:08.276Z,13.38
2023-04-24T11:30:34.391Z,10.05
2023-04-24T11:33:07.273Z,14.00
2023-04-24T11:35:31.610Z,8.45
2023-04-24T11:40:24.772Z,15.07
2023-04-24T11:42:50.111Z,11.85
2023-04-24T11:45:17.573Z,11.45
2023-04-24T11:47:42.050Z,9.80
2023-04-24T11:50:08.524Z,8.02
2023-04-24T11:52:32.562Z,14.20
2023-04-24T11:54:56.352Z,13.30
2023-04-24T11:57:23.094Z,13.77
2023-04-24T11:59:47.756Z,19.10
2023-04-24T12:02:23.921Z,11.85
2023-04-24T12:04:47.724Z,13.18
2023-04-24T12:07:11.543Z,12.30
2023-04-24T12:09:45.392Z,9.93
2023-04-24T12:12:11.840Z,10.38
2023-04-24T12:14:49.859Z,9.95
2023-04-24T12:17:14.565Z,9.30
2023-04-24T12:19:38.391Z,9.30
2023-04-24T12:22:03.083Z,7.38
2023-04-24T12:24:26.332Z,6.03
2023-04-24T12:26:49.612Z,10.15
2023-04-24T12:29:13.224Z,10.43
2023-04-24T12:31:36.707Z,9.65
2023-04-24T12:34:01.363Z,6.78
2023-04-24T12:36:24.716Z,7.78
2023-04-24T12:38:47.970Z,5.22
2023-04-24T12:41:14.819Z,3.97
2023-04-24T12:43:38.570Z,7.43
2023-04-24T12:46:02.258Z,3.97
2023-04-24T12:48:25.794Z,3.55
2023-04-24T12:50:50.602Z,6.07
2023-04-24T12:53:13.971Z,6.80
2023-04-24T12:55:37.489Z,6.60
2023-04-24T12:58:00.733Z,5.20
2023-04-24T13:00:24.396Z,4.63
2023-04-24T13:02:47.847Z,3.33
2023-04-24T13:05:12.703Z,4.85
2023-04-24T13:07:37.380Z,4.90
2023-04-24T13:10:00.677Z,11.30
2023-04-24T13:12:24.817Z,19.00
2023-04-24T13:14:48.681Z,6.20
2023-04-24T13:17:13.418Z,4.85
2023-04-24T13:19:38.782Z,5.43
2023-04-24T13:22:02.120Z,3.88
2023-04-24T13:24:26.957Z,6.15
2023-04-24T13:26:50.301Z,4.43
2023-04-24T13:29:13.678Z,2.22
2023-04-24T13:31:37.300Z,5.63
2023-04-24T13:34:01.032Z,5.40
2023-04-24T13:36:24.645Z,1.67
2023-04-24T13:38:48.003Z,3.95
2023-04-24T13:41:12.766Z,2.25
2023-04-24T13:43:36.056Z,2.50
2023-04-24T13:46:00.445Z,2.30
2023-04-24T13:48:23.975Z,3.40
2023-04-24T13:50:49.356Z,4.57
2023-04-24T13:53:12.839Z,1.73
2023-04-24T13:55:36.374Z,3.10
2023-04-24T13:58:02.389Z,2.55
2023-04-24T14:00:25.945Z,4.80
2023-04-24T14:02:49.835Z,7.78
2023-04-24T14:05:16.091Z,3.67
2023-04-24T14:07:39.417Z,8.05
2023-04-24T14:10:02.627Z,4.07
2023-04-24T14:12:26.838Z,3.85
2023-04-24T14:14:51.496Z,3.28
2023-04-24T14:17:14.753Z,5.65
2023-04-24T14:19:38.066Z,4.32
2023-04-24T14:22:02.311Z,5.35
2023-04-24T14:24:25.616Z,4.90
2023-04-24T14:26:49.073Z,3.67
2023-04-24T14:29:15.215Z,5.05
2023-04-24T14:31:40.555Z,4.30
2023-04-24T14:34:03.811Z,2.00
2023-04-24T14:36:27.230Z,3.20
2023-04-24T14:38:50.449Z,6.65
2023-04-24T14:41:14.408Z,6.50
2023-04-24T14:43:38.023Z,5.53
2023-04-24T14:46:01.369Z,3.78
2023-04-24T14:48:26.094Z,6.63
2023-04-24T14:50:49.395Z,5.82
2023-04-24T14:53:12.788Z,2.35
2023-04-24T14:55:37.408Z,3.67
2023-04-24T14:58:00.742Z,6.78
2023-04-24T15:00:25.427Z,6.93
2023-04-24T15:02:48.965Z,2.50
2023-04-24T15:05:13.876Z,7.43
2023-04-24T15:07:37.768Z,6.78
2023-04-24T15:10:01.192Z,7.93
2023-04-24T15:12:24.634Z,14.82
2023-04-24T15:14:47.838Z,3.95
2023-04-24T15:17:11.179Z,7.30
2023-04-24T15:19:34.540Z,4.80
2023-04-24T15:21:59.252Z,4.10
2023-04-24T15:24:22.548Z,4.82
2023-04-24T15:26:46.245Z,2.95
2023-04-24T15:29:09.695Z,3.70
2023-04-24T15:31:33.056Z,3.97
2023-04-24T15:33:56.337Z,3.58
2023-04-24T15:36:22.022Z,5.03
2023-04-24T15:38:47.165Z,7.45
2023-04-24T15:41:10.624Z,4.80
2023-04-24T15:43:35.206Z,3.78
2023-04-24T15:45:58.973Z,3.20
2023-04-24T15:48:22.456Z,4.22
2023-04-24T15:50:45.750Z,7.05
2023-04-24T15:53:09.328Z,4.32
2023-04-24T15:55:33.927Z,6.68
2023-04-24T15:57:57.271Z,5.40
2023-04-24T16:00:21.348Z,4.32
2023-04-24T16:02:44.777Z,4.90
2023-04-24T16:05:08.986Z,8.82
2023-04-24T16:07:32.925Z,5.20
2023-04-24T16:09:56.128Z,6.97
2023-04-24T16:12:21.186Z,4.57
2023-04-24T16:14:44.573Z,4.65
2023-04-24T16:17:08.549Z,5.25
2023-04-24T16:19:31.929Z,4.38
2023-04-24T16:21:56.289Z,4.45
2023-04-24T16:24:19.603Z,8.25
2023-04-24T16:26:44.234Z,7.07
2023-04-24T16:29:08.875Z,7.97
2023-04-24T16:31:32.417Z,4.05
2023-04-24T16:33:55.711Z,3.72
2023-04-24T16:36:19.119Z,4.63
2023-04-24T16:38:43.255Z,4.50
2023-04-24T16:41:06.719Z,3.88
2023-04-24T16:43:30.089Z,4.15
2023-04-24T16:45:55.254Z,3.92
2023-04-24T16:48:18.570Z,7.15
2023-04-24T16:50:41.856Z,3.55
2023-04-24T16:53:06.384Z,4.45
2023-04-24T16:55:29.615Z,4.10
2023-04-24T16:57:53.245Z,5.05
2023-04-24T17:00:17.869Z,3.78
2023-04-24T17:02:44.621Z,4.40
2023-04-24T17:05:09.328Z,3.80
2023-04-24T17:07:34.240Z,4.18
2023-04-24T17:09:57.585Z,4.63
2023-04-24T17:12:20.841Z,4.95
2023-04-24T17:14:44.278Z,3.40
2023-04-24T17:17:07.748Z,5.13
2023-04-24T17:19:32.461Z,6.07
2023-04-24T17:21:57.288Z,6.15
2023-04-24T17:24:22.415Z,4.90
2023-04-24T17:26:45.893Z,4.97
2023-04-24T17:29:11.246Z,6.35
2023-04-24T17:31:34.924Z,5.60
2023-04-24T17:33:59.355Z,5.60
2023-04-24T17:36:24.282Z,7.20
2023-04-24T17:38:47.775Z,6.43
2023-04-24T17:41:11.141Z,4.43
2023-04-24T17:43:34.476Z,6.13
2023-04-24T17:45:59.366Z,4.93
2023-04-24T17:48:23.536Z,3.97
2023-04-24T17:50:48.269Z,9.55
2023-04-24T17:53:14.000Z,4.18
2023-04-24T17:55:37.635Z,8.77
2023-04-24T17:58:01.853Z,10.88
2023-04-24T18:00:25.282Z,11.60
2023-04-24T18:02:49.717Z,5.10
2023-04-24T18:05:13.243Z,5.47
2023-04-24T18:07:36.585Z,6.57
2023-04-24T18:10:01.201Z,6.75
2023-04-24T18:12:24.710Z,7.28
2023-04-24T18:14:48.004Z,9.63
2023-04-24T18:17:11.365Z,8.90
2023-04-24T18:19:34.732Z,10.68
2023-04-24T18:21:59.586Z,7.85
2023-04-24T18:24:23.242Z,8.55
2023-04-24T18:26:47.920Z,12.27
2023-04-24T18:29:11.222Z,8.63
2023-04-24T18:31:34.618Z,7.32
2023-04-24T18:34:01.283Z,5.88
2023-04-24T18:36:24.540Z,7.00
2023-04-24T18:38:48.396Z,8.10
2023-04-24T18:41:38.664Z,8.73
2023-04-24T18:44:03.935Z,9.23
2023-04-24T18:46:27.179Z,10.70
2023-04-24T18:48:51.595Z,9.85
2023-04-24T18:51:14.831Z,7.45
2023-04-24T18:53:38.340Z,5.55
2023-04-24T18:56:02.279Z,6.75
2023-04-24T18:58:29.455Z,5.88
2023-04-24T19:00:54.172Z,9.43
2023-04-24T19:03:18.467Z,7.10
2023-04-24T19:05:42.015Z,6.43
2023-04-24T19:08:05.349Z,9.15
2023-04-24T19:10:29.097Z,6.68
2023-04-24T19:13:18.190Z,8.13
2023-04-24T19:15:43.274Z,9.35
2023-04-24T19:18:09.111Z,12.13
2023-04-24T19:20:32.399Z,11.38
2023-04-24T19:22:55.765Z,6.95
2023-04-24T19:25:19.207Z,8.85
2023-04-24T19:27:43.407Z,10.02
2023-04-24T19:30:08.963Z,13.13
2023-04-24T19:32:32.504Z,9.40
2023-04-24T19:34:57.196Z,10.15
2023-04-24T19:37:20.552Z,10.68
2023-04-24T19:39:43.770Z,11.55
2023-04-24T19:42:07.781Z,7.78
2023-04-24T19:44:32.321Z,6.57
2023-04-24T19:46:57.452Z,10.02
2023-04-24T19:49:20.683Z,10.90
2023-04-24T19:51:46.724Z,12.43
2023-04-24T19:54:10.459Z,11.90
2023-04-24T19:56:33.879Z,10.43
2023-04-24T19:58:57.402Z,9.68
2023-04-24T20:01:20.916Z,11.07
2023-04-24T20:03:45.960Z,11.30
2023-04-24T20:06:10.307Z,7.90
2023-04-24T20:08:38.777Z,7.75
2023-04-24T20:11:02.086Z,13.23
2023-04-24T20:13:27.604Z,9.80
2023-04-24T20:15:51.397Z,11.70
2023-04-24T20:18:14.698Z,10.80
2023-04-24T20:20:38.641Z,8.80
2023-04-24T20:23:02.181Z,11.57
2023-04-24T20:25:26.981Z,11.52
2023-04-24T20:27:50.422Z,9.23
2023-04-24T20:30:14.277Z,12.63
2023-04-24T20:32:37.830Z,10.75
2023-04-24T20:35:01.415Z,11.38
2023-04-24T20:37:26.414Z,14.68
2023-04-24T20:39:52.019Z,8.45
2023-04-24T20:42:18.421Z,12.75
2023-04-24T20:44:42.301Z,8.90
2023-04-24T20:47:06.255Z,12.52
2023-04-24T20:49:29.586Z,18.00
2023-04-24T20:51:52.874Z,10.93
2023-04-24T20:54:19.292Z,10.65
2023-04-24T20:56:42.655Z,10.45
2023-04-24T20:59:07.273Z,13.70
2023-04-24T21:01:31.605Z,11.35
2023-04-24T21:03:54.915Z,11.55
2023-04-24T21:06:22.303Z,14.15
2023-04-24T21:08:45.634Z,14.43
2023-04-24T21:11:08.904Z,16.20
2023-04-24T21:13:32.228Z,13.50
2023-04-24T21:15:57.929Z,10.35
2023-04-24T21:18:21.264Z,15.40
2023-04-24T21:20:46.973Z,13.73
2023-04-24T21:23:10.535Z,12.27
2023-04-24T21:25:34.086Z,10.60
2023-04-24T21:27:57.768Z,17.92
2023-04-24T21:30:21.994Z,13.20
2023-04-24T21:32:46.776Z,18.83
2023-04-24T21:35:12.311Z,12.80
2023-04-24T21:37:37.811Z,13.80
2023-04-24T21:40:01.220Z,10.02
2023-04-24T21:42:24.512Z,13.32
2023-04-24T21:44:47.826Z,16.48
2023-04-24T21:47:11.597Z,13.15
2023-04-24T21:49:36.242Z,16.63
2023-04-24T21:51:59.587Z,17.13
2023-04-24T21:54:22.776Z,14.32
2023-04-24T21:56:46.120Z,14.88
2023-04-24T21:59:09.630Z,15.60
2023-04-24T22:01:34.430Z,20.73
2023-04-24T22:03:57.937Z,18.20
2023-04-24T22:06:24.479Z,14.73
2023-04-24T22:08:47.829Z,17.17
2023-04-24T22:11:23.724Z,18.77
2023-04-24T22:13:50.131Z,17.42
2023-04-24T22:16:13.585Z,19.30
2023-04-24T22:18:46.556Z,16.08
2023-04-24T22:21:10.920Z,17.92
2023-04-24T22:23:37.341Z,17.45
2023-04-24T22:26:04.454Z,14.93
2023-04-24T22:28:27.723Z,12.30
2023-04-24T22:30:51.091Z,20.38
2023-04-24T22:33:14.343Z,13.45
2023-04-24T22:35:37.692Z,19.52
2023-04-24T22:38:00.959Z,18.23
2023-04-24T22:40:26.992Z,21.55
2023-04-24T22:42:50.448Z,17.65
2023-04-24T22:45:15.431Z,18.85
2023-04-24T22:47:38.765Z,19.13
2023-04-24T22:50:07.292Z,18.50
2023-04-24T22:52:32.479Z,17.75
2023-04-24T22:54:55.777Z,21.27
2023-04-24T22:57:21.332Z,20.20
2023-04-24T22:59:44.766Z,23.50
2023-04-24T23:02:08.484Z,19.83
2023-04-24T23:04:32.352Z,18.50
2023-04-24T23:06:56.569Z,20.02
2023-04-24T23:09:19.790Z,20.50
2023-04-24T23:11:44.302Z,20.25
2023-04-24T23:14:10.272Z,17.23
2023-04-24T23:16:37.554Z,19.58
2023-04-24T23:19:02.426Z,21.15
2023-04-24T23:21:26.499Z,22.08
2023-04-24T23:23:54.295Z,17.92
2023-04-24T23:26:17.618Z,17.00
2023-04-24T23:28:43.335Z,22.42
2023-04-24T23:31:07.991Z,19.50
2023-04-24T23:33:31.522Z,18.25
2023-04-24T23:35:54.784Z,18.02
2023-04-24T23:38:18.416Z,21.20
2023-04-24T23:40:41.699Z,18.45
2023-04-24T23:43:07.896Z,19.70
2023-04-24T23:45:32.133Z,18.23
2023-04-24T23:47:56.757Z,16.58
2023-04-24T23:50:20.701Z,17.17
2023-04-24T23:52:44.029Z,18.83
2023-04-24T23:55:09.282Z,18.25
2023-04-24T23:57:32.845Z,20.52
2023-04-24T23:59:57.444Z,25.08
